sensor_id;sensor_type;location;lat;lon;timestamp;temperature;humidity
64501;DHT22;50874;24.150;-110.320;2023-07-29T00:01:40;36.80;93.00
64501;DHT22;50874;24.150;-110.320;2023-07-29T00:04:07;36.80;92.80
64501;DHT22;50874;24.150;-110.320;2023-07-29T00:06:35;36.90;92.90
64501;DHT22;50874;24.150;-110.320;2023-07-29T00:09:02;36.90;93.00
64501;DHT22;50874;24.150;-110.320;2023-07-29T00:11:29;36.90;93.10
64501;DHT22;50874;24.150;-110.320;2023-07-29T00:13:56;36.80;93.20
64501;DHT22;50874;24.150;-110.320;2023-07-29T00:16:22;36.70;93.50
64501;DHT22;50874;24.150;-110.320;2023-07-29T00:18:49;36.50;93.70
64501;DHT22;50874;24.150;-110.320;2023-07-29T00:21:16;36.50;93.90
64501;DHT22;50874;24.150;-110.320;2023-07-29T00:23:42;36.40;94.10
64501;DHT22;50874;24.150;-110.320;2023-07-29T00:26:09;36.20;94.00
64501;DHT22;50874;24.150;-110.320;2023-07-29T00:28:35;36.10;94.30
64501;DHT22;50874;24.150;-110.320;2023-07-29T00:31:02;35.90;94.40
64501;DHT22;50874;24.150;-110.320;2023-07-29T00:33:28;36.10;94.50
64501;DHT22;50874;24.150;-110.320;2023-07-29T00:35:55;36.10;94.30
64501;DHT22;50874;24.150;-110.320;2023-07-29T00:38:22;36.10;94.40
64501;DHT22;50874;24.150;-110.320;2023-07-29T00:40:48;36.10;94.50
64501;DHT22;50874;24.150;-110.320;2023-07-29T00:43:15;36.10;94.50
64501;DHT22;50874;24.150;-110.320;2023-07-29T00:45:43;36.20;94.60
64501;DHT22;50874;24.150;-110.320;2023-07-29T00:48:11;35.90;94.60
64501;DHT22;50874;24.150;-110.320;2023-07-29T00:50:37;35.80;94.90
64501;DHT22;50874;24.150;-110.320;2023-07-29T00:53:04;35.70;95.10
64501;DHT22;50874;24.150;-110.320;2023-07-29T00:55:30;35.60;95.20
64501;DHT22;50874;24.150;-110.320;2023-07-29T00:57:57;35.50;95.20
64501;DHT22;50874;24.150;-110.320;2023-07-29T01:00:24;35.40;95.40
64501;DHT22;50874;24.150;-110.320;2023-07-29T01:02:53;35.30;95.60
64501;DHT22;50874;24.150;-110.320;2023-07-29T01:05:21;35.20;95.80
64501;DHT22;50874;24.150;-110.320;2023-07-29T01:08:12;35.30;95.70
64501;DHT22;50874;24.150;-110.320;2023-07-29T01:11:01;35.30;96.10
64501;DHT22;50874;24.150;-110.320;2023-07-29T01:13:44;35.20;95.70
64501;DHT22;50874;24.150;-110.320;2023-07-29T01:16:22;35.00;96.00
64501;DHT22;50874;24.150;-110.320;2023-07-29T01:18:52;34.70;96.30
64501;DHT22;50874;24.150;-110.320;2023-07-29T01:21:20;34.70;96.30
64501;DHT22;50874;24.150;-110.320;2023-07-29T01:23:47;34.50;96.50
64501;DHT22;50874;24.150;-110.320;2023-07-29T01:26:13;34.40;96.60
64501;DHT22;50874;24.150;-110.320;2023-07-29T01:28:40;34.40;96.60
64501;DHT22;50874;24.150;-110.320;2023-07-29T01:31:16;34.40;96.80
64501;DHT22;50874;24.150;-110.320;2023-07-29T01:34:06;34.40;96.90
64501;DHT22;50874;24.150;-110.320;2023-07-29T01:36:34;34.20;97.00
64501;DHT22;50874;24.150;-110.320;2023-07-29T01:39:06;33.80;97.50
64501;DHT22;50874;24.150;-110.320;2023-07-29T01:41:35;33.70;97.80
64501;DHT22;50874;24.150;-110.320;2023-07-29T01:44:02;33.70;97.80
64501;DHT22;50874;24.150;-110.320;2023-07-29T01:46:29;33.50;98.10
64501;DHT22;50874;24.150;-110.320;2023-07-29T01:48:58;33.30;98.30
64501;DHT22;50874;24.150;-110.320;2023-07-29T01:51:24;33.40;98.40
64501;DHT22;50874;24.150;-110.320;2023-07-29T01:53:51;33.40;98.60
64501;DHT22;50874;24.150;-110.320;2023-07-29T01:56:17;33.10;98.80
64501;DHT22;50874;24.150;-110.320;2023-07-29T01:58:44;33.10;98.90
64501;DHT22;50874;24.150;-110.320;2023-07-29T02:01:10;32.90;99.30
64501;DHT22;50874;24.150;-110.320;2023-07-29T02:03:36;32.60;99.70
64501;DHT22;50874;24.150;-110.320;2023-07-29T02:06:03;32.60;99.90
64501;DHT22;50874;24.150;-110.320;2023-07-29T02:08:30;32.40;99.90
64501;DHT22;50874;24.150;-110.320;2023-07-29T02:10:56;32.40;99.90
64501;DHT22;50874;24.150;-110.320;2023-07-29T02:13:23;32.40;99.90
64501;DHT22;50874;24.150;-110.320;2023-07-29T02:15:49;32.30;99.90
64501;DHT22;50874;24.150;-110.320;2023-07-29T02:18:16;32.30;99.90
64501;DHT22;50874;24.150;-110.320;2023-07-29T02:20:42;32.30;99.90
64501;DHT22;50874;24.150;-110.320;2023-07-29T02:23:15;32.30;99.90
64501;DHT22;50874;24.150;-110.320;2023-07-29T02:25:45;32.30;99.90
64501;DHT22;50874;24.150;-110.320;2023-07-29T02:28:11;32.20;99.90
64501;DHT22;50874;24.150;-110.320;2023-07-29T02:30:41;32.20;99.90
64501;DHT22;50874;24.150;-110.320;2023-07-29T02:33:10;31.90;99.90
64501;DHT22;50874;24.150;-110.320;2023-07-29T02:35:37;31.80;99.90
64501;DHT22;50874;24.150;-110.320;2023-07-29T02:38:03;31.70;99.90
64501;DHT22;50874;24.150;-110.320;2023-07-29T02:40:29;31.80;99.90
64501;DHT22;50874;24.150;-110.320;2023-07-29T02:42:56;31.80;99.90
64501;DHT22;50874;24.150;-110.320;2023-07-29T02:45:23;31.60;99.90
64501;DHT22;50874;24.150;-110.320;2023-07-29T02:47:49;31.60;99.90
64501;DHT22;50874;24.150;-110.320;2023-07-29T02:50:16;31.50;99.90
64501;DHT22;50874;24.150;-110.320;2023-07-29T02:52:42;31.50;99.90
64501;DHT22;50874;24.150;-110.320;2023-07-29T02:55:09;31.30;99.90
64501;DHT22;50874;24.150;-110.320;2023-07-29T02:57:35;31.30;99.90
64501;DHT22;50874;24.150;-110.320;2023-07-29T03:00:02;31.30;99.90
64501;DHT22;50874;24.150;-110.320;2023-07-29T03:02:29;31.20;99.90
64501;DHT22;50874;24.150;-110.320;2023-07-29T03:04:55;31.10;99.90
64501;DHT22;50874;24.150;-110.320;2023-07-29T03:07:21;31.00;99.90
64501;DHT22;50874;24.150;-110.320;2023-07-29T03:09:48;31.00;99.90
64501;DHT22;50874;24.150;-110.320;2023-07-29T03:12:14;31.00;99.90
64501;DHT22;50874;24.150;-110.320;2023-07-29T03:14:41;31.00;99.90
64501;DHT22;50874;24.150;-110.320;2023-07-29T03:17:07;30.90;99.90
64501;DHT22;50874;24.150;-110.320;2023-07-29T03:19:34;30.90;99.90
64501;DHT22;50874;24.150;-110.320;2023-07-29T03:22:00;30.80;99.90
64501;DHT22;50874;24.150;-110.320;2023-07-29T03:24:27;30.80;99.90
64501;DHT22;50874;24.150;-110.320;2023-07-29T03:26:54;30.70;99.90
64501;DHT22;50874;24.150;-110.320;2023-07-29T03:29:21;30.70;99.90
64501;DHT22;50874;24.150;-110.320;2023-07-29T03:31:47;30.60;99.90
64501;DHT22;50874;24.150;-110.320;2023-07-29T03:34:14;30.50;99.90
64501;DHT22;50874;24.150;-110.320;2023-07-29T03:36:40;30.60;99.90
64501;DHT22;50874;24.150;-110.320;2023-07-29T03:39:07;30.40;99.90
64501;DHT22;50874;24.150;-110.320;2023-07-29T03:41:33;30.40;99.90
64501;DHT22;50874;24.150;-110.320;2023-07-29T03:44:00;30.40;99.90
64501;DHT22;50874;24.150;-110.320;2023-07-29T03:46:26;30.30;99.90
64501;DHT22;50874;24.150;-110.320;2023-07-29T03:48:53;30.20;99.90
64501;DHT22;50874;24.150;-110.320;2023-07-29T03:51:19;30.20;99.90
64501;DHT22;50874;24.150;-110.320;2023-07-29T03:53:46;30.10;99.90
64501;DHT22;50874;24.150;-110.320;2023-07-29T03:56:13;30.00;99.90
64501;DHT22;50874;24.150;-110.320;2023-07-29T03:58:39;30.00;99.90
64501;DHT22;50874;24.150;-110.320;2023-07-29T04:01:06;30.10;99.90
64501;DHT22;50874;24.150;-110.320;2023-07-29T04:03:34;30.10;99.90
64501;DHT22;50874;24.150;-110.320;2023-07-29T04:06:00;30.00;99.90
64501;DHT22;50874;24.150;-110.320;2023-07-29T04:08:27;29.90;99.90
64501;DHT22;50874;24.150;-110.320;2023-07-29T04:10:53;29.90;99.90
64501;DHT22;50874;24.150;-110.320;2023-07-29T04:13:20;29.90;99.90
64501;DHT22;50874;24.150;-110.320;2023-07-29T04:15:47;29.90;99.90
64501;DHT22;50874;24.150;-110.320;2023-07-29T04:18:13;29.90;99.90
64501;DHT22;50874;24.150;-110.320;2023-07-29T04:20:40;29.90;99.90
64501;DHT22;50874;24.150;-110.320;2023-07-29T04:23:06;29.90;99.90
64501;DHT22;50874;24.150;-110.320;2023-07-29T04:25:33;29.80;99.90
64501;DHT22;50874;24.150;-110.320;2023-07-29T04:27:59;29.80;99.90
64501;DHT22;50874;24.150;-110.320;2023-07-29T04:30:25;29.80;99.90
64501;DHT22;50874;24.150;-110.320;2023-07-29T04:32:52;29.70;99.90
64501;DHT22;50874;24.150;-110.320;2023-07-29T04:35:18;29.70;99.90
64501;DHT22;50874;24.150;-110.320;2023-07-29T04:37:45;29.70;99.90
64501;DHT22;50874;24.150;-110.320;2023-07-29T04:40:14;29.70;99.90
64501;DHT22;50874;24.150;-110.320;2023-07-29T04:42:40;29.70;99.90
64501;DHT22;50874;24.150;-110.320;2023-07-29T04:45:07;29.70;99.90
64501;DHT22;50874;24.150;-110.320;2023-07-29T04:47:33;29.70;99.90
64501;DHT22;50874;24.150;-110.320;2023-07-29T04:50:00;29.80;99.90
64501;DHT22;50874;24.150;-110.320;2023-07-29T04:52:26;29.80;99.90
64501;DHT22;50874;24.150;-110.320;2023-07-29T04:54:53;29.80;99.90
64501;DHT22;50874;24.150;-110.320;2023-07-29T04:57:19;29.70;99.90
64501;DHT22;50874;24.150;-110.320;2023-07-29T04:59:46;29.70;99.90
64501;DHT22;50874;24.150;-110.320;2023-07-29T05:02:12;29.70;99.90
64501;DHT22;50874;24.150;-110.320;2023-07-29T05:04:39;29.70;99.90
64501;DHT22;50874;24.150;-110.320;2023-07-29T05:07:05;29.70;99.90
64501;DHT22;50874;24.150;-110.320;2023-07-29T05:09:32;29.70;99.90
64501;DHT22;50874;24.150;-110.320;2023-07-29T05:11:58;29.70;99.90
64501;DHT22;50874;24.150;-110.320;2023-07-29T05:14:24;29.70;99.90
64501;DHT22;50874;24.150;-110.320;2023-07-29T05:16:51;29.70;99.90
64501;DHT22;50874;24.150;-110.320;2023-07-29T05:19:17;29.70;99.90
64501;DHT22;50874;24.150;-110.320;2023-07-29T05:21:44;29.60;99.90
64501;DHT22;50874;24.150;-110.320;2023-07-29T05:24:10;29.60;99.90
64501;DHT22;50874;24.150;-110.320;2023-07-29T05:26:37;29.50;99.90
64501;DHT22;50874;24.150;-110.320;2023-07-29T05:29:03;29.40;99.90
64501;DHT22;50874;24.150;-110.320;2023-07-29T05:31:30;29.40;99.90
64501;DHT22;50874;24.150;-110.320;2023-07-29T05:33:56;29.40;99.90
64501;DHT22;50874;24.150;-110.320;2023-07-29T05:36:23;29.40;99.90
64501;DHT22;50874;24.150;-110.320;2023-07-29T05:38:51;29.40;99.90
64501;DHT22;50874;24.150;-110.320;2023-07-29T05:41:18;29.40;99.90
64501;DHT22;50874;24.150;-110.320;2023-07-29T05:43:44;29.40;99.90
64501;DHT22;50874;24.150;-110.320;2023-07-29T05:46:11;29.40;99.90
64501;DHT22;50874;24.150;-110.320;2023-07-29T05:48:37;29.40;99.90
64501;DHT22;50874;24.150;-110.320;2023-07-29T05:51:04;29.40;99.90
64501;DHT22;50874;24.150;-110.320;2023-07-29T05:53:33;29.40;99.90
64501;DHT22;50874;24.150;-110.320;2023-07-29T05:55:59;29.40;99.90
64501;DHT22;50874;24.150;-110.320;2023-07-29T05:58:26;29.40;99.90
64501;DHT22;50874;24.150;-110.320;2023-07-29T06:00:52;29.30;99.90
64501;DHT22;50874;24.150;-110.320;2023-07-29T06:03:19;29.30;99.90
64501;DHT22;50874;24.150;-110.320;2023-07-29T06:05:45;29.20;99.90
64501;DHT22;50874;24.150;-110.320;2023-07-29T06:08:12;29.20;99.90
64501;DHT22;50874;24.150;-110.320;2023-07-29T06:10:38;29.30;99.90
64501;DHT22;50874;24.150;-110.320;2023-07-29T06:13:05;29.30;99.90
64501;DHT22;50874;24.150;-110.320;2023-07-29T06:15:32;29.30;99.90
64501;DHT22;50874;24.150;-110.320;2023-07-29T06:17:58;29.30;99.90
64501;DHT22;50874;24.150;-110.320;2023-07-29T06:20:24;29.30;99.90
64501;DHT22;50874;24.150;-110.320;2023-07-29T06:22:51;29.30;99.90
64501;DHT22;50874;24.150;-110.320;2023-07-29T06:25:17;29.30;99.90
64501;DHT22;50874;24.150;-110.320;2023-07-29T06:27:44;29.30;99.90
64501;DHT22;50874;24.150;-110.320;2023-07-29T06:30:10;29.20;99.90
64501;DHT22;50874;24.150;-110.320;2023-07-29T06:32:37;29.20;99.90
64501;DHT22;50874;24.150;-110.320;2023-07-29T06:35:03;29.30;99.90
64501;DHT22;50874;24.150;-110.320;2023-07-29T06:37:30;29.30;99.90
64501;DHT22;50874;24.150;-110.320;2023-07-29T06:39:56;29.20;99.90
64501;DHT22;50874;24.150;-110.320;2023-07-29T06:42:23;29.10;99.90
64501;DHT22;50874;24.150;-110.320;2023-07-29T06:44:49;29.10;99.90
64501;DHT22;50874;24.150;-110.320;2023-07-29T06:47:16;29.10;99.90
64501;DHT22;50874;24.150;-110.320;2023-07-29T06:49:42;29.10;99.90
64501;DHT22;50874;24.150;-110.320;2023-07-29T06:52:09;29.10;99.90
64501;DHT22;50874;24.150;-110.320;2023-07-29T06:54:35;29.10;99.90
64501;DHT22;50874;24.150;-110.320;2023-07-29T06:57:02;29.20;99.90
64501;DHT22;50874;24.150;-110.320;2023-07-29T06:59:28;29.20;99.90
64501;DHT22;50874;24.150;-110.320;2023-07-29T07:01:55;29.20;99.90
64501;DHT22;50874;24.150;-110.320;2023-07-29T07:04:21;29.20;99.90
64501;DHT22;50874;24.150;-110.320;2023-07-29T07:06:48;29.10;99.90
64501;DHT22;50874;24.150;-110.320;2023-07-29T07:09:14;29.10;99.90
64501;DHT22;50874;24.150;-110.320;2023-07-29T07:11:40;29.10;99.90
64501;DHT22;50874;24.150;-110.320;2023-07-29T07:14:07;29.00;99.90
64501;DHT22;50874;24.150;-110.320;2023-07-29T07:16:33;29.00;99.90
64501;DHT22;50874;24.150;-110.320;2023-07-29T07:19:02;29.00;99.90
64501;DHT22;50874;24.150;-110.320;2023-07-29T07:21:29;29.00;99.90
64501;DHT22;50874;24.150;-110.320;2023-07-29T07:23:55;29.00;99.90
64501;DHT22;50874;24.150;-110.320;2023-07-29T07:26:22;29.00;99.90
64501;DHT22;50874;24.150;-110.320;2023-07-29T07:28:48;28.90;99.90
64501;DHT22;50874;24.150;-110.320;2023-07-29T07:31:15;28.90;99.90
64501;DHT22;50874;24.150;-110.320;2023-07-29T07:33:42;28.90;99.90
64501;DHT22;50874;24.150;-110.320;2023-07-29T07:36:08;28.90;99.90
64501;DHT22;50874;24.150;-110.320;2023-07-29T07:38:35;28.90;99.90
64501;DHT22;50874;24.150;-110.320;2023-07-29T07:41:01;28.90;99.90
64501;DHT22;50874;24.150;-110.320;2023-07-29T07:43:28;28.90;99.90
64501;DHT22;50874;24.150;-110.320;2023-07-29T07:45:58;28.90;99.90
64501;DHT22;50874;24.150;-110.320;2023-07-29T07:48:26;28.90;99.90
64501;DHT22;50874;24.150;-110.320;2023-07-29T07:50:52;28.90;99.90
64501;DHT22;50874;24.150;-110.320;2023-07-29T07:53:19;28.90;99.90
64501;DHT22;50874;24.150;-110.320;2023-07-29T07:55:46;28.90;99.90
64501;DHT22;50874;24.150;-110.320;2023-07-29T07:58:12;28.90;99.90
64501;DHT22;50874;24.150;-110.320;2023-07-29T08:00:39;28.90;99.90
64501;DHT22;50874;24.150;-110.320;2023-07-29T08:03:06;28.90;99.90
64501;DHT22;50874;24.150;-110.320;2023-07-29T08:05:32;28.90;99.90
64501;DHT22;50874;24.150;-110.320;2023-07-29T08:07:59;28.90;99.90
64501;DHT22;50874;24.150;-110.320;2023-07-29T08:10:25;28.80;99.90
64501;DHT22;50874;24.150;-110.320;2023-07-29T08:12:52;28.80;99.90
64501;DHT22;50874;24.150;-110.320;2023-07-29T08:15:18;28.90;99.90
64501;DHT22;50874;24.150;-110.320;2023-07-29T08:17:46;28.90;99.90
64501;DHT22;50874;24.150;-110.320;2023-07-29T08:20:13;28.80;99.90
64501;DHT22;50874;24.150;-110.320;2023-07-29T08:22:39;28.70;99.90
64501;DHT22;50874;24.150;-110.320;2023-07-29T08:25:06;28.70;99.90
64501;DHT22;50874;24.150;-110.320;2023-07-29T08:27:33;28.70;99.90
64501;DHT22;50874;24.150;-110.320;2023-07-29T08:30:00;28.70;99.90
64501;DHT22;50874;24.150;-110.320;2023-07-29T08:32:27;28.80;99.90
64501;DHT22;50874;24.150;-110.320;2023-07-29T08:34:53;28.80;99.90
64501;DHT22;50874;24.150;-110.320;2023-07-29T08:37:19;28.80;99.90
64501;DHT22;50874;24.150;-110.320;2023-07-29T08:39:46;28.80;99.90
64501;DHT22;50874;24.150;-110.320;2023-07-29T08:42:13;28.80;99.90
64501;DHT22;50874;24.150;-110.320;2023-07-29T08:44:42;28.80;99.90
64501;DHT22;50874;24.150;-110.320;2023-07-29T08:47:09;28.70;99.90
64501;DHT22;50874;24.150;-110.320;2023-07-29T08:49:36;28.70;99.90
64501;DHT22;50874;24.150;-110.320;2023-07-29T08:52:04;28.70;99.90
64501;DHT22;50874;24.150;-110.320;2023-07-29T08:54:31;28.70;99.90
64501;DHT22;50874;24.150;-110.320;2023-07-29T08:56:58;28.60;99.90
64501;DHT22;50874;24.150;-110.320;2023-07-29T08:59:26;28.60;99.90
64501;DHT22;50874;24.150;-110.320;2023-07-29T09:01:54;28.60;99.90
64501;DHT22;50874;24.150;-110.320;2023-07-29T09:04:23;28.60;99.90
64501;DHT22;50874;24.150;-110.320;2023-07-29T09:06:51;28.60;99.90
64501;DHT22;50874;24.150;-110.320;2023-07-29T09:09:18;28.60;99.90
64501;DHT22;50874;24.150;-110.320;2023-07-29T09:11:44;28.60;99.90
64501;DHT22;50874;24.150;-110.320;2023-07-29T09:14:10;28.60;99.90
64501;DHT22;50874;24.150;-110.320;2023-07-29T09:16:37;28.60;99.90
64501;DHT22;50874;24.150;-110.320;2023-07-29T09:19:04;28.50;99.90
64501;DHT22;50874;24.150;-110.320;2023-07-29T09:21:31;28.50;99.90
64501;DHT22;50874;24.150;-110.320;2023-07-29T09:24:03;28.40;99.90
64501;DHT22;50874;24.150;-110.320;2023-07-29T09:26:33;28.30;99.90
64501;DHT22;50874;24.150;-110.320;2023-07-29T09:29:00;28.20;99.90
64501;DHT22;50874;24.150;-110.320;2023-07-29T09:31:28;28.20;99.90
64501;DHT22;50874;24.150;-110.320;2023-07-29T09:34:03;28.20;99.90
64501;DHT22;50874;24.150;-110.320;2023-07-29T09:36:33;28.10;99.90
64501;DHT22;50874;24.150;-110.320;2023-07-29T09:39:00;28.00;99.90
64501;DHT22;50874;24.150;-110.320;2023-07-29T09:41:28;28.00;99.90
64501;DHT22;50874;24.150;-110.320;2023-07-29T09:44:01;28.00;99.90
64501;DHT22;50874;24.150;-110.320;2023-07-29T09:49:02;28.00;99.90
64501;DHT22;50874;24.150;-110.320;2023-07-29T09:51:29;28.00;99.90
64501;DHT22;50874;24.150;-110.320;2023-07-29T09:53:56;28.00;99.90
64501;DHT22;50874;24.150;-110.320;2023-07-29T09:56:27;28.00;99.90
64501;DHT22;50874;24.150;-110.320;2023-07-29T09:58:56;28.00;99.90
64501;DHT22;50874;24.150;-110.320;2023-07-29T10:01:24;28.00;99.90
64501;DHT22;50874;24.150;-110.320;2023-07-29T10:03:50;28.00;99.90
64501;DHT22;50874;24.150;-110.320;2023-07-29T10:06:18;27.90;99.90
64501;DHT22;50874;24.150;-110.320;2023-07-29T10:08:45;27.90;99.90
64501;DHT22;50874;24.150;-110.320;2023-07-29T10:11:12;27.90;99.90
64501;DHT22;50874;24.150;-110.320;2023-07-29T10:13:39;27.90;99.90
64501;DHT22;50874;24.150;-110.320;2023-07-29T10:16:06;27.90;99.90
64501;DHT22;50874;24.150;-110.320;2023-07-29T10:18:33;27.80;99.90
64501;DHT22;50874;24.150;-110.320;2023-07-29T10:21:00;27.80;99.90
64501;DHT22;50874;24.150;-110.320;2023-07-29T10:23:31;27.80;99.90
64501;DHT22;50874;24.150;-110.320;2023-07-29T10:26:03;27.80;99.90
64501;DHT22;50874;24.150;-110.320;2023-07-29T10:28:31;27.80;99.90
64501;DHT22;50874;24.150;-110.320;2023-07-29T10:30:58;27.80;99.90
64501;DHT22;50874;24.150;-110.320;2023-07-29T10:33:27;27.80;99.90
64501;DHT22;50874;24.150;-110.320;2023-07-29T10:35:54;27.70;99.90
64501;DHT22;50874;24.150;-110.320;2023-07-29T10:38:22;27.80;99.90
64501;DHT22;50874;24.150;-110.320;2023-07-29T10:40:55;27.80;99.90
64501;DHT22;50874;24.150;-110.320;2023-07-29T10:46:15;27.80;99.90
64501;DHT22;50874;24.150;-110.320;2023-07-29T10:51:44;27.70;99.90
64501;DHT22;50874;24.150;-110.320;2023-07-29T10:54:12;27.70;99.90
64501;DHT22;50874;24.150;-110.320;2023-07-29T10:56:48;27.70;99.90
64501;DHT22;50874;24.150;-110.320;2023-07-29T11:01:53;27.70;99.90
64501;DHT22;50874;24.150;-110.320;2023-07-29T11:09:52;27.80;99.90
64501;DHT22;50874;24.150;-110.320;2023-07-29T11:17:38;27.80;99.90
64501;DHT22;50874;24.150;-110.320;2023-07-29T11:20:06;27.80;99.90
64501;DHT22;50874;24.150;-110.320;2023-07-29T11:22:36;27.80;99.90
64501;DHT22;50874;24.150;-110.320;2023-07-29T11:25:03;27.90;99.90
64501;DHT22;50874;24.150;-110.320;2023-07-29T11:27:31;27.90;99.90
64501;DHT22;50874;24.150;-110.320;2023-07-29T11:29:59;27.90;99.90
64501;DHT22;50874;24.150;-110.320;2023-07-29T11:32:26;27.90;99.90
64501;DHT22;50874;24.150;-110.320;2023-07-29T11:34:52;27.80;99.90
64501;DHT22;50874;24.150;-110.320;2023-07-29T11:37:19;27.80;99.90
64501;DHT22;50874;24.150;-110.320;2023-07-29T11:39:47;27.80;99.90
64501;DHT22;50874;24.150;-110.320;2023-07-29T11:42:17;27.80;99.90
64501;DHT22;50874;24.150;-110.320;2023-07-29T11:44:43;27.80;99.90
64501;DHT22;50874;24.150;-110.320;2023-07-29T11:47:11;27.70;99.90
64501;DHT22;50874;24.150;-110.320;2023-07-29T11:49:41;27.70;99.90
64501;DHT22;50874;24.150;-110.320;2023-07-29T11:52:08;27.70;99.90
64501;DHT22;50874;24.150;-110.320;2023-07-29T11:54:36;27.70;99.90
64501;DHT22;50874;24.150;-110.320;2023-07-29T11:57:09;27.60;99.90
64501;DHT22;50874;24.150;-110.320;2023-07-29T11:59:37;27.70;99.90
64501;DHT22;50874;24.150;-110.320;2023-07-29T12:02:11;27.60;99.90
64501;DHT22;50874;24.150;-110.320;2023-07-29T12:04:39;27.70;99.90
64501;DHT22;50874;24.150;-110.320;2023-07-29T12:07:07;27.70;99.90
64501;DHT22;50874;24.150;-110.320;2023-07-29T12:09:34;27.70;99.90
64501;DHT22;50874;24.150;-110.320;2023-07-29T12:12:05;27.70;99.90
64501;DHT22;50874;24.150;-110.320;2023-07-29T12:14:32;27.70;99.90
64501;DHT22;50874;24.150;-110.320;2023-07-29T12:17:04;27.70;99.90
64501;DHT22;50874;24.150;-110.320;2023-07-29T12:19:35;27.70;99.90
64501;DHT22;50874;24.150;-110.320;2023-07-29T12:22:03;27.70;99.90
64501;DHT22;50874;24.150;-110.320;2023-07-29T12:24:32;27.70;99.90
64501;DHT22;50874;24.150;-110.320;2023-07-29T12:26:59;27.70;99.90
64501;DHT22;50874;24.150;-110.320;2023-07-29T12:29:26;27.70;99.90
64501;DHT22;50874;24.150;-110.320;2023-07-29T12:32:01;27.80;99.90
64501;DHT22;50874;24.150;-110.320;2023-07-29T12:34:29;27.80;99.90
64501;DHT22;50874;24.150;-110.320;2023-07-29T12:36:58;27.80;99.90
64501;DHT22;50874;24.150;-110.320;2023-07-29T12:39:35;27.80;99.90
64501;DHT22;50874;24.150;-110.320;2023-07-29T12:42:02;27.90;99.90
64501;DHT22;50874;24.150;-110.320;2023-07-29T12:44:34;27.90;99.90
64501;DHT22;50874;24.150;-110.320;2023-07-29T12:47:04;27.90;99.90
64501;DHT22;50874;24.150;-110.320;2023-07-29T12:49:31;27.80;99.90
64501;DHT22;50874;24.150;-110.320;2023-07-29T12:51:59;27.80;99.90
64501;DHT22;50874;24.150;-110.320;2023-07-29T12:54:25;27.80;99.90
64501;DHT22;50874;24.150;-110.320;2023-07-29T12:56:52;27.80;99.90
64501;DHT22;50874;24.150;-110.320;2023-07-29T12:59:19;27.70;99.90
64501;DHT22;50874;24.150;-110.320;2023-07-29T13:01:45;27.70;99.90
64501;DHT22;50874;24.150;-110.320;2023-07-29T13:04:11;27.60;99.90
64501;DHT22;50874;24.150;-110.320;2023-07-29T13:06:38;27.60;99.90
64501;DHT22;50874;24.150;-110.320;2023-07-29T13:09:04;27.60;99.90
64501;DHT22;50874;24.150;-110.320;2023-07-29T13:11:35;27.50;99.90
64501;DHT22;50874;24.150;-110.320;2023-07-29T13:14:01;27.50;99.90
64501;DHT22;50874;24.150;-110.320;2023-07-29T13:16:31;27.50;99.90
64501;DHT22;50874;24.150;-110.320;2023-07-29T13:18:57;27.50;99.90
64501;DHT22;50874;24.150;-110.320;2023-07-29T13:21:24;27.50;99.90
64501;DHT22;50874;24.150;-110.320;2023-07-29T13:23:51;27.50;99.90
64501;DHT22;50874;24.150;-110.320;2023-07-29T13:26:18;27.70;99.90
64501;DHT22;50874;24.150;-110.320;2023-07-29T13:28:44;27.80;99.90
64501;DHT22;50874;24.150;-110.320;2023-07-29T13:31:11;27.80;99.90
64501;DHT22;50874;24.150;-110.320;2023-07-29T13:33:38;27.80;99.90
64501;DHT22;50874;24.150;-110.320;2023-07-29T13:36:05;28.00;99.90
64501;DHT22;50874;24.150;-110.320;2023-07-29T13:38:34;28.10;99.90
64501;DHT22;50874;24.150;-110.320;2023-07-29T13:41:00;28.40;99.90
64501;DHT22;50874;24.150;-110.320;2023-07-29T13:43:27;28.70;99.90
64501;DHT22;50874;24.150;-110.320;2023-07-29T13:45:53;29.10;99.90
64501;DHT22;50874;24.150;-110.320;2023-07-29T13:48:19;29.40;99.90
64501;DHT22;50874;24.150;-110.320;2023-07-29T13:50:46;29.80;99.90
64501;DHT22;50874;24.150;-110.320;2023-07-29T13:53:12;30.10;99.90
64501;DHT22;50874;24.150;-110.320;2023-07-29T13:55:39;30.20;99.90
64501;DHT22;50874;24.150;-110.320;2023-07-29T13:58:05;30.50;99.90
64501;DHT22;50874;24.150;-110.320;2023-07-29T14:00:32;30.70;99.90
64501;DHT22;50874;24.150;-110.320;2023-07-29T14:02:59;30.70;99.90
64501;DHT22;50874;24.150;-110.320;2023-07-29T14:05:25;30.90;99.90
64501;DHT22;50874;24.150;-110.320;2023-07-29T14:07:52;31.20;99.90
64501;DHT22;50874;24.150;-110.320;2023-07-29T14:10:18;31.40;99.90
64501;DHT22;50874;24.150;-110.320;2023-07-29T14:12:45;31.60;99.90
64501;DHT22;50874;24.150;-110.320;2023-07-29T14:15:11;32.00;99.90
64501;DHT22;50874;24.150;-110.320;2023-07-29T14:17:37;32.10;99.90
64501;DHT22;50874;24.150;-110.320;2023-07-29T14:20:04;32.20;99.90
64501;DHT22;50874;24.150;-110.320;2023-07-29T14:22:31;32.50;99.90
64501;DHT22;50874;24.150;-110.320;2023-07-29T14:24:57;32.60;99.90
64501;DHT22;50874;24.150;-110.320;2023-07-29T14:27:24;32.70;98.90
64501;DHT22;50874;24.150;-110.320;2023-07-29T14:29:50;33.10;97.70
64501;DHT22;50874;24.150;-110.320;2023-07-29T14:32:17;33.20;97.00
64501;DHT22;50874;24.150;-110.320;2023-07-29T14:34:43;33.20;97.20
64501;DHT22;50874;24.150;-110.320;2023-07-29T14:37:10;33.40;96.30
64501;DHT22;50874;24.150;-110.320;2023-07-29T14:39:36;33.60;95.10
64501;DHT22;50874;24.150;-110.320;2023-07-29T14:42:03;33.90;93.90
64501;DHT22;50874;24.150;-110.320;2023-07-29T14:44:29;34.10;90.10
64501;DHT22;50874;24.150;-110.320;2023-07-29T14:46:56;33.90;88.00
64501;DHT22;50874;24.150;-110.320;2023-07-29T14:49:22;34.00;86.60
64501;DHT22;50874;24.150;-110.320;2023-07-29T14:51:49;34.00;83.90
64501;DHT22;50874;24.150;-110.320;2023-07-29T14:54:15;34.30;84.00
64501;DHT22;50874;24.150;-110.320;2023-07-29T14:56:42;34.40;85.00
64501;DHT22;50874;24.150;-110.320;2023-07-29T14:59:08;34.50;85.50
64501;DHT22;50874;24.150;-110.320;2023-07-29T15:01:35;34.80;86.10
64501;DHT22;50874;24.150;-110.320;2023-07-29T15:04:01;35.00;86.00
64501;DHT22;50874;24.150;-110.320;2023-07-29T15:06:28;35.30;86.00
64501;DHT22;50874;24.150;-110.320;2023-07-29T15:08:54;35.40;85.90
64501;DHT22;50874;24.150;-110.320;2023-07-29T15:11:20;35.60;86.30